Atlas, Michigan
Current Conditions -  °F | °C
As of 6:53 PM on Sunday 23 Nov 2014 (Local Time) from KFNT Reporting Station
Light Rain Light Rain  
Wind Chill: 51°   Ceiling: 4800
Heat Index: 51°   Visibility: 8mi
Dew Point: 47°   Wind: 12mph
Humidity: 86%   Direction: 130°SE
Pressure: 29.58"   Gusts: NA
Location:  42.94°N, 83.53°W
Report Text: KFNT 232353Z 13010KT 8SM -RA SCT038 OVC048 11/08 A2958 RMK AO2 SLP018 P0005 60013 T01060083 10117 20100 58033
Loading
Personal Weather Stations






























Interactive Weather Map New forecast layout! Learn more

10-Day Weather Forecast

Advertisements
Track Severe Weather on mobile